Strona główna
METAR-TAF:

METAR-TAF

Lotnisko :

San Fernando, Argentyna

Szerokość geograficzna: 34-27-11S, Długość geograficzna: 058-35-23W, wysokość: 3 m

Aktualna obserwacja pogody

Raport powstał 29 minut temu, godzina 06:00 UTC
Wiatr 6 kt od północny wschód
Temperatura 23°C
Wilgotność 78%
Ciśnienie 1015 hPa
Widzialność 10 km lub więcej
Brak chmur poniżej 1500 m i brak chmur cumulonimbus

METAR: SADF 240600Z 05006KT CAVOK 23/19 Q1015

czas: 03:29 (06:29 UTC)

Prognoza

Raport powstał 1 godzina i 29 minut temu, godzina 05:00 UTC
Prognoza ważna od 24 godzina 06 UTC do 25 godzina 06 UTC
Wiatr 10 kt od wschód
Widzialność 10 km lub więcej
Rozproszone chmury na wysokości 2500 ft
Rozproszone chmury na wysokości 10000 ft
Stopniowe zmiany
od 24 godzina 15 UTC do 24 godzina 17 UTC
Wiatr 15 kt od wschód
Widzialność 10 km lub więcej
Brak chmur poniżej 1500 m i brak chmur cumulonimbus

TAF: SADF 240500Z 2406/2506 09010KT 9999 SCT025 SCT100 TX30/2418Z TN21/2409Z BECMG 2415/2417 09015KT CAVOK

Obserwacja i prognoza pogody dla ponad 4000 lotnisk (raport METAR i TAF).

Dostępne stacje oznaczono żółtymi i czerwonymi punktami na mapie.

Najedź kursorem aby zobaczyć nazwę stacji.

Kliknij aby zobaczyć obserwacje i prognozy pogody.

Aby zmienić mapę: kliknij na zielony przycisk z czarnym krzyżykiem, aby powiększyć; na zielony przycisk z myślnikiem, aby pomniejszyć; na zielone strzałki, aby przejść do map sąsiednich.


METAR-TAF: